sensor_id;sensor_type;location;lat;lon;timestamp;pressure;altitude;pressure_sealevel;temperature;humidity
72612;BME280;60655;52.182;4.474;2023-04-01T00:01:59;99094.59;;;9.50;100.00
72612;BME280;60655;52.182;4.474;2023-04-01T00:04:00;99096.84;;;9.36;100.00
72612;BME280;60655;52.182;4.474;2023-04-01T00:06:03;99100.44;;;9.52;100.00
72612;BME280;60655;52.182;4.474;2023-04-01T00:08:04;99112.59;;;9.47;100.00
72612;BME280;60655;52.182;4.474;2023-04-01T00:10:07;99107.19;;;9.37;100.00
72612;BME280;60655;52.182;4.474;2023-04-01T00:12:08;99106.19;;;9.43;100.00
72612;BME280;60655;52.182;4.474;2023-04-01T00:14:12;99103.69;;;9.32;100.00
72612;BME280;60655;52.182;4.474;2023-04-01T00:16:14;99116.44;;;9.35;100.00
72612;BME280;60655;52.182;4.474;2023-04-01T00:18:16;99116.88;;;9.27;100.00
72612;BME280;60655;52.182;4.474;2023-04-01T00:20:16;99114.47;;;9.25;100.00
72612;BME280;60655;52.182;4.474;2023-04-01T00:22:17;99117.69;;;9.27;100.00
72612;BME280;60655;52.182;4.474;2023-04-01T00:24:18;99121.19;;;9.33;100.00
72612;BME280;60655;52.182;4.474;2023-04-01T00:26:19;99118.09;;;9.41;100.00
72612;BME280;60655;52.182;4.474;2023-04-01T00:28:21;99118.94;;;9.46;100.00
72612;BME280;60655;52.182;4.474;2023-04-01T00:30:22;99123.28;;;9.58;100.00
72612;BME280;60655;52.182;4.474;2023-04-01T00:32:23;99125.31;;;9.45;100.00
72612;BME280;60655;52.182;4.474;2023-04-01T00:34:24;99126.34;;;9.44;100.00
72612;BME280;60655;52.182;4.474;2023-04-01T00:36:26;99118.41;;;9.44;100.00
72612;BME280;60655;52.182;4.474;2023-04-01T00:38:30;99125.09;;;9.52;100.00
72612;BME280;60655;52.182;4.474;2023-04-01T00:40:34;99118.22;;;9.56;100.00
72612;BME280;60655;52.182;4.474;2023-04-01T00:42:35;99127.66;;;9.42;100.00
72612;BME280;60655;52.182;4.474;2023-04-01T00:44:37;99129.81;;;9.45;100.00
72612;BME280;60655;52.182;4.474;2023-04-01T00:46:41;99120.00;;;9.45;100.00
72612;BME280;60655;52.182;4.474;2023-04-01T00:48:49;99132.09;;;9.63;100.00
72612;BME280;60655;52.182;4.474;2023-04-01T00:51:15;99138.03;;;9.75;100.00
72612;BME280;60655;52.182;4.474;2023-04-01T00:53:16;99143.69;;;9.57;100.00
72612;BME280;60655;52.182;4.474;2023-04-01T00:55:19;99144.97;;;9.55;100.00
72612;BME280;60655;52.182;4.474;2023-04-01T00:57:32;99143.66;;;9.52;100.00
72612;BME280;60655;52.182;4.474;2023-04-01T00:59:46;99147.31;;;9.46;100.00
72612;BME280;60655;52.182;4.474;2023-04-01T01:01:48;99149.22;;;9.51;100.00
72612;BME280;60655;52.182;4.474;2023-04-01T01:03:49;99147.94;;;9.58;100.00
72612;BME280;60655;52.182;4.474;2023-04-01T01:10:33;99152.41;;;9.53;100.00
72612;BME280;60655;52.182;4.474;2023-04-01T01:13:21;99165.19;;;9.34;100.00
72612;BME280;60655;52.182;4.474;2023-04-01T01:17:58;99167.78;;;9.56;100.00
72612;BME280;60655;52.182;4.474;2023-04-01T01:27:26;99176.47;;;9.73;99.62
72612;BME280;60655;52.182;4.474;2023-04-01T01:29:40;99176.97;;;9.70;100.00
72612;BME280;60655;52.182;4.474;2023-04-01T01:36:13;99180.09;;;9.40;100.00
72612;BME280;60655;52.182;4.474;2023-04-01T01:38:24;99176.53;;;9.51;100.00
72612;BME280;60655;52.182;4.474;2023-04-01T01:40:27;99181.69;;;9.41;100.00
72612;BME280;60655;52.182;4.474;2023-04-01T01:42:31;99191.88;;;9.49;100.00
72612;BME280;60655;52.182;4.474;2023-04-01T01:44:36;99191.00;;;9.43;100.00
72612;BME280;60655;52.182;4.474;2023-04-01T01:46:39;99204.81;;;9.45;100.00
72612;BME280;60655;52.182;4.474;2023-04-01T01:48:42;99198.84;;;9.60;100.00
72612;BME280;60655;52.182;4.474;2023-04-01T01:50:45;99194.81;;;9.53;100.00
72612;BME280;60655;52.182;4.474;2023-04-01T01:52:47;99196.69;;;9.57;100.00
72612;BME280;60655;52.182;4.474;2023-04-01T01:54:49;99211.06;;;9.61;100.00
72612;BME280;60655;52.182;4.474;2023-04-01T01:56:52;99186.25;;;9.45;100.00
72612;BME280;60655;52.182;4.474;2023-04-01T01:59:03;99205.38;;;9.47;100.00
72612;BME280;60655;52.182;4.474;2023-04-01T02:01:10;99206.69;;;9.72;100.00
72612;BME280;60655;52.182;4.474;2023-04-01T02:03:13;99213.59;;;9.73;100.00
72612;BME280;60655;52.182;4.474;2023-04-01T02:05:18;99208.72;;;9.65;100.00
72612;BME280;60655;52.182;4.474;2023-04-01T02:07:24;99219.44;;;9.75;99.77
72612;BME280;60655;52.182;4.474;2023-04-01T02:09:27;99223.09;;;9.69;100.00
72612;BME280;60655;52.182;4.474;2023-04-01T02:11:32;99225.25;;;9.72;100.00
72612;BME280;60655;52.182;4.474;2023-04-01T02:13:49;99224.06;;;9.63;100.00
72612;BME280;60655;52.182;4.474;2023-04-01T02:15:55;99236.47;;;9.79;100.00
72612;BME280;60655;52.182;4.474;2023-04-01T02:17:57;99238.75;;;9.70;100.00
72612;BME280;60655;52.182;4.474;2023-04-01T02:20:09;99241.53;;;9.59;100.00
72612;BME280;60655;52.182;4.474;2023-04-01T02:22:14;99243.88;;;9.55;100.00
72612;BME280;60655;52.182;4.474;2023-04-01T02:24:17;99247.94;;;9.63;100.00
72612;BME280;60655;52.182;4.474;2023-04-01T02:26:22;99246.75;;;9.75;100.00
72612;BME280;60655;52.182;4.474;2023-04-01T02:28:27;99246.66;;;9.43;100.00
72612;BME280;60655;52.182;4.474;2023-04-01T02:30:31;99258.97;;;9.55;100.00
72612;BME280;60655;52.182;4.474;2023-04-01T02:32:34;99253.00;;;9.42;100.00
72612;BME280;60655;52.182;4.474;2023-04-01T02:34:36;99255.72;;;9.47;100.00
72612;BME280;60655;52.182;4.474;2023-04-01T02:36:38;99260.03;;;9.54;100.00
72612;BME280;60655;52.182;4.474;2023-04-01T02:38:40;99265.03;;;9.50;100.00
72612;BME280;60655;52.182;4.474;2023-04-01T02:40:50;99271.31;;;9.44;100.00
72612;BME280;60655;52.182;4.474;2023-04-01T02:42:52;99273.41;;;9.64;100.00
72612;BME280;60655;52.182;4.474;2023-04-01T02:44:53;99270.25;;;9.67;100.00
72612;BME280;60655;52.182;4.474;2023-04-01T02:46:54;99282.72;;;9.66;100.00
72612;BME280;60655;52.182;4.474;2023-04-01T02:48:55;99281.34;;;9.64;100.00
72612;BME280;60655;52.182;4.474;2023-04-01T02:50:56;99293.31;;;9.66;100.00
72612;BME280;60655;52.182;4.474;2023-04-01T02:52:57;99290.78;;;9.55;100.00
72612;BME280;60655;52.182;4.474;2023-04-01T02:54:58;99295.47;;;9.69;100.00
72612;BME280;60655;52.182;4.474;2023-04-01T02:56:59;99291.53;;;9.72;100.00
72612;BME280;60655;52.182;4.474;2023-04-01T02:59:00;99292.44;;;9.82;100.00
72612;BME280;60655;52.182;4.474;2023-04-01T03:01:00;99301.63;;;9.97;100.00
72612;BME280;60655;52.182;4.474;2023-04-01T03:03:01;99306.41;;;9.73;100.00
72612;BME280;60655;52.182;4.474;2023-04-01T03:05:04;99310.16;;;9.77;100.00
72612;BME280;60655;52.182;4.474;2023-04-01T03:07:06;99317.56;;;9.75;100.00
72612;BME280;60655;52.182;4.474;2023-04-01T03:09:07;99314.78;;;9.65;100.00
72612;BME280;60655;52.182;4.474;2023-04-01T03:11:09;99319.41;;;9.74;100.00
72612;BME280;60655;52.182;4.474;2023-04-01T03:13:10;99319.91;;;9.71;100.00
72612;BME280;60655;52.182;4.474;2023-04-01T03:15:12;99323.72;;;9.80;100.00
72612;BME280;60655;52.182;4.474;2023-04-01T03:17:14;99340.22;;;9.88;100.00
72612;BME280;60655;52.182;4.474;2023-04-01T03:19:16;99331.16;;;9.83;100.00
72612;BME280;60655;52.182;4.474;2023-04-01T03:21:20;99339.88;;;9.79;100.00
72612;BME280;60655;52.182;4.474;2023-04-01T03:23:21;99329.88;;;9.86;100.00
72612;BME280;60655;52.182;4.474;2023-04-01T03:25:24;99342.81;;;9.82;100.00
72612;BME280;60655;52.182;4.474;2023-04-01T03:27:25;99344.56;;;9.72;100.00
72612;BME280;60655;52.182;4.474;2023-04-01T03:29:26;99337.97;;;9.53;100.00
72612;BME280;60655;52.182;4.474;2023-04-01T03:31:27;99357.69;;;9.62;100.00
72612;BME280;60655;52.182;4.474;2023-04-01T03:33:28;99354.69;;;9.75;100.00
72612;BME280;60655;52.182;4.474;2023-04-01T03:35:29;99358.88;;;9.71;100.00
72612;BME280;60655;52.182;4.474;2023-04-01T03:37:30;99366.91;;;9.76;100.00
72612;BME280;60655;52.182;4.474;2023-04-01T03:39:31;99356.53;;;9.74;100.00
72612;BME280;60655;52.182;4.474;2023-04-01T03:41:32;99376.25;;;9.83;100.00
72612;BME280;60655;52.182;4.474;2023-04-01T03:43:33;99366.91;;;9.76;100.00
72612;BME280;60655;52.182;4.474;2023-04-01T03:45:34;99375.75;;;9.65;100.00
72612;BME280;60655;52.182;4.474;2023-04-01T03:47:35;99378.34;;;9.60;100.00
72612;BME280;60655;52.182;4.474;2023-04-01T03:49:35;99389.22;;;9.80;100.00
72612;BME280;60655;52.182;4.474;2023-04-01T03:51:37;99385.50;;;9.59;100.00
72612;BME280;60655;52.182;4.474;2023-04-01T03:53:38;99384.50;;;9.65;100.00
72612;BME280;60655;52.182;4.474;2023-04-01T03:55:40;99402.72;;;9.78;100.00
72612;BME280;60655;52.182;4.474;2023-04-01T03:57:41;99401.53;;;9.69;100.00
72612;BME280;60655;52.182;4.474;2023-04-01T03:59:42;99405.09;;;9.58;100.00
72612;BME280;60655;52.182;4.474;2023-04-01T04:01:43;99406.38;;;9.56;100.00
72612;BME280;60655;52.182;4.474;2023-04-01T04:03:44;99410.94;;;9.60;100.00
72612;BME280;60655;52.182;4.474;2023-04-01T04:05:49;99403.47;;;9.57;100.00
72612;BME280;60655;52.182;4.474;2023-04-01T04:07:51;99423.09;;;9.56;100.00
72612;BME280;60655;52.182;4.474;2023-04-01T04:09:52;99418.94;;;9.43;100.00
72612;BME280;60655;52.182;4.474;2023-04-01T04:11:52;99418.16;;;9.43;100.00
72612;BME280;60655;52.182;4.474;2023-04-01T04:13:53;99434.69;;;9.50;100.00
72612;BME280;60655;52.182;4.474;2023-04-01T04:15:54;99428.88;;;9.53;100.00
72612;BME280;60655;52.182;4.474;2023-04-01T04:17:55;99427.13;;;9.42;100.00
72612;BME280;60655;52.182;4.474;2023-04-01T04:19:56;99437.09;;;9.52;100.00
72612;BME280;60655;52.182;4.474;2023-04-01T04:21:57;99444.63;;;9.60;100.00
72612;BME280;60655;52.182;4.474;2023-04-01T04:23:59;99443.94;;;9.47;100.00
72612;BME280;60655;52.182;4.474;2023-04-01T04:26:04;99441.59;;;9.51;100.00
72612;BME280;60655;52.182;4.474;2023-04-01T04:28:06;99448.31;;;9.59;100.00
72612;BME280;60655;52.182;4.474;2023-04-01T04:30:08;99451.31;;;9.45;100.00
72612;BME280;60655;52.182;4.474;2023-04-01T04:32:09;99453.28;;;9.55;100.00
72612;BME280;60655;52.182;4.474;2023-04-01T04:34:10;99459.41;;;9.56;100.00
72612;BME280;60655;52.182;4.474;2023-04-01T04:36:11;99443.72;;;9.54;100.00
72612;BME280;60655;52.182;4.474;2023-04-01T04:38:12;99462.06;;;9.56;100.00
72612;BME280;60655;52.182;4.474;2023-04-01T04:40:13;99461.44;;;9.48;100.00
72612;BME280;60655;52.182;4.474;2023-04-01T04:42:14;99479.75;;;9.50;100.00
72612;BME280;60655;52.182;4.474;2023-04-01T04:44:15;99466.34;;;9.40;100.00
72612;BME280;60655;52.182;4.474;2023-04-01T04:46:16;99478.88;;;9.44;100.00
72612;BME280;60655;52.182;4.474;2023-04-01T04:48:17;99480.56;;;9.51;100.00
72612;BME280;60655;52.182;4.474;2023-04-01T04:50:21;99485.28;;;9.48;100.00
72612;BME280;60655;52.182;4.474;2023-04-01T04:52:23;99493.00;;;9.50;100.00
72612;BME280;60655;52.182;4.474;2023-04-01T04:54:23;99506.81;;;9.52;100.00
72612;BME280;60655;52.182;4.474;2023-04-01T04:56:24;99494.19;;;9.42;100.00
72612;BME280;60655;52.182;4.474;2023-04-01T04:58:26;99511.00;;;9.48;100.00
72612;BME280;60655;52.182;4.474;2023-04-01T05:00:27;99496.22;;;9.52;100.00
72612;BME280;60655;52.182;4.474;2023-04-01T05:02:28;99520.06;;;9.35;100.00
72612;BME280;60655;52.182;4.474;2023-04-01T05:04:34;99518.78;;;9.38;100.00
72612;BME280;60655;52.182;4.474;2023-04-01T05:06:35;99520.16;;;9.40;100.00
72612;BME280;60655;52.182;4.474;2023-04-01T05:08:36;99521.91;;;9.35;100.00
72612;BME280;60655;52.182;4.474;2023-04-01T05:10:39;99533.47;;;9.29;100.00
72612;BME280;60655;52.182;4.474;2023-04-01T05:12:40;99533.88;;;9.37;100.00
72612;BME280;60655;52.182;4.474;2023-04-01T05:14:41;99537.66;;;9.41;100.00
72612;BME280;60655;52.182;4.474;2023-04-01T05:16:42;99535.09;;;9.46;100.00
72612;BME280;60655;52.182;4.474;2023-04-01T05:18:43;99542.31;;;9.34;100.00
72612;BME280;60655;52.182;4.474;2023-04-01T05:20:49;99535.06;;;9.30;100.00
72612;BME280;60655;52.182;4.474;2023-04-01T05:22:55;99535.66;;;9.48;100.00
72612;BME280;60655;52.182;4.474;2023-04-01T05:24:56;99549.69;;;9.32;100.00
72612;BME280;60655;52.182;4.474;2023-04-01T05:26:57;99557.72;;;9.37;100.00
72612;BME280;60655;52.182;4.474;2023-04-01T05:28:58;99546.94;;;9.27;100.00
72612;BME280;60655;52.182;4.474;2023-04-01T05:31:00;99559.94;;;9.29;100.00
72612;BME280;60655;52.182;4.474;2023-04-01T05:33:02;99560.53;;;9.31;100.00
72612;BME280;60655;52.182;4.474;2023-04-01T05:35:03;99552.56;;;9.14;100.00
72612;BME280;60655;52.182;4.474;2023-04-01T05:37:04;99569.03;;;9.33;100.00
72612;BME280;60655;52.182;4.474;2023-04-01T05:39:05;99568.38;;;9.26;100.00
72612;BME280;60655;52.182;4.474;2023-04-01T05:41:06;99569.34;;;9.20;100.00
72612;BME280;60655;52.182;4.474;2023-04-01T05:43:07;99577.22;;;9.14;100.00
72612;BME280;60655;52.182;4.474;2023-04-01T05:45:08;99579.06;;;9.14;100.00
72612;BME280;60655;52.182;4.474;2023-04-01T05:47:09;99585.00;;;9.21;100.00
72612;BME280;60655;52.182;4.474;2023-04-01T05:49:10;99593.81;;;9.10;100.00
72612;BME280;60655;52.182;4.474;2023-04-01T05:51:15;99594.34;;;9.24;100.00
72612;BME280;60655;52.182;4.474;2023-04-01T05:53:16;99597.25;;;9.39;100.00
72612;BME280;60655;52.182;4.474;2023-04-01T05:55:17;99597.69;;;9.19;100.00
72612;BME280;60655;52.182;4.474;2023-04-01T05:57:17;99598.16;;;9.16;100.00
72612;BME280;60655;52.182;4.474;2023-04-01T05:59:18;99601.75;;;9.10;100.00
72612;BME280;60655;52.182;4.474;2023-04-01T06:01:20;99597.13;;;9.17;100.00
72612;BME280;60655;52.182;4.474;2023-04-01T06:03:21;99607.94;;;9.44;100.00
72612;BME280;60655;52.182;4.474;2023-04-01T06:05:24;99612.47;;;9.32;100.00
72612;BME280;60655;52.182;4.474;2023-04-01T06:07:27;99602.13;;;9.30;100.00
72612;BME280;60655;52.182;4.474;2023-04-01T06:09:29;99624.75;;;9.21;100.00
72612;BME280;60655;52.182;4.474;2023-04-01T06:11:39;99607.16;;;9.15;100.00
72612;BME280;60655;52.182;4.474;2023-04-01T06:32:46;99652.75;;;9.17;100.00
72612;BME280;60655;52.182;4.474;2023-04-01T06:37:43;99652.69;;;9.29;100.00
72612;BME280;60655;52.182;4.474;2023-04-01T06:40:02;99661.22;;;9.31;100.00
72612;BME280;60655;52.182;4.474;2023-04-01T06:47:01;99670.78;;;9.32;100.00
72612;BME280;60655;52.182;4.474;2023-04-01T06:56:19;99677.25;;;9.24;100.00
72612;BME280;60655;52.182;4.474;2023-04-01T06:58:24;99686.28;;;9.11;100.00
72612;BME280;60655;52.182;4.474;2023-04-01T07:00:43;99696.31;;;9.09;100.00
72612;BME280;60655;52.182;4.474;2023-04-01T07:02:48;99697.69;;;9.12;100.00
72612;BME280;60655;52.182;4.474;2023-04-01T07:04:58;99698.03;;;9.16;100.00
72612;BME280;60655;52.182;4.474;2023-04-01T07:07:08;99704.16;;;9.16;100.00
72612;BME280;60655;52.182;4.474;2023-04-01T07:09:19;99708.50;;;9.22;100.00
72612;BME280;60655;52.182;4.474;2023-04-01T07:11:26;99704.47;;;9.20;100.00
72612;BME280;60655;52.182;4.474;2023-04-01T07:13:46;99721.09;;;9.03;100.00
72612;BME280;60655;52.182;4.474;2023-04-01T07:15:56;99716.22;;;9.24;100.00
72612;BME280;60655;52.182;4.474;2023-04-01T07:18:05;99720.56;;;9.30;100.00
72612;BME280;60655;52.182;4.474;2023-04-01T07:20:23;99730.53;;;9.23;100.00
72612;BME280;60655;52.182;4.474;2023-04-01T07:22:35;99729.66;;;9.34;100.00
72612;BME280;60655;52.182;4.474;2023-04-01T07:24:44;99740.25;;;9.34;100.00
72612;BME280;60655;52.182;4.474;2023-04-01T07:26:45;99734.50;;;9.25;100.00
72612;BME280;60655;52.182;4.474;2023-04-01T07:28:46;99732.31;;;9.34;100.00
72612;BME280;60655;52.182;4.474;2023-04-01T07:33:14;99741.53;;;9.43;100.00
72612;BME280;60655;52.182;4.474;2023-04-01T07:37:46;99753.31;;;9.24;100.00
72612;BME280;60655;52.182;4.474;2023-04-01T07:44:37;99765.38;;;9.31;100.00
72612;BME280;60655;52.182;4.474;2023-04-01T07:49:40;99763.31;;;9.33;100.00
72612;BME280;60655;52.182;4.474;2023-04-01T08:01:17;99785.19;;;9.40;100.00
72612;BME280;60655;52.182;4.474;2023-04-01T08:03:33;99779.56;;;9.25;100.00
72612;BME280;60655;52.182;4.474;2023-04-01T08:21:47;99809.75;;;9.47;100.00
72612;BME280;60655;52.182;4.474;2023-04-01T08:23:56;99815.97;;;9.30;100.00
72612;BME280;60655;52.182;4.474;2023-04-01T08:26:05;99808.97;;;9.24;100.00
72612;BME280;60655;52.182;4.474;2023-04-01T08:30:24;99812.41;;;9.36;100.00
72612;BME280;60655;52.182;4.474;2023-04-01T08:32:39;99819.16;;;9.55;100.00
72612;BME280;60655;52.182;4.474;2023-04-01T08:34:46;99813.66;;;9.45;100.00
72612;BME280;60655;52.182;4.474;2023-04-01T08:37:02;99828.31;;;9.47;100.00
72612;BME280;60655;52.182;4.474;2023-04-01T08:39:32;99837.88;;;9.25;100.00
72612;BME280;60655;52.182;4.474;2023-04-01T08:53:00;99844.41;;;9.58;100.00
72612;BME280;60655;52.182;4.474;2023-04-01T09:01:55;99859.28;;;9.59;100.00
72612;BME280;60655;52.182;4.474;2023-04-01T09:13:09;99865.72;;;9.63;100.00
72612;BME280;60655;52.182;4.474;2023-04-01T09:22:09;99888.31;;;9.65;100.00
72612;BME280;60655;52.182;4.474;2023-04-01T09:24:35;99887.50;;;9.65;100.00
72612;BME280;60655;52.182;4.474;2023-04-01T09:26:50;99891.09;;;9.59;100.00
72612;BME280;60655;52.182;4.474;2023-04-01T09:31:25;99890.97;;;9.54;100.00
72612;BME280;60655;52.182;4.474;2023-04-01T09:36:18;99891.78;;;9.66;100.00
72612;BME280;60655;52.182;4.474;2023-04-01T09:49:35;99910.81;;;9.63;100.00
72612;BME280;60655;52.182;4.474;2023-04-01T10:02:13;99916.09;;;9.74;100.00
72612;BME280;60655;52.182;4.474;2023-04-01T10:23:20;99949.88;;;9.67;100.00
72612;BME280;60655;52.182;4.474;2023-04-01T10:34:30;99948.13;;;9.96;99.84
72612;BME280;60655;52.182;4.474;2023-04-01T10:36:50;99951.34;;;10.10;99.27
72612;BME280;60655;52.182;4.474;2023-04-01T10:46:10;99966.56;;;10.03;99.96
72612;BME280;60655;52.182;4.474;2023-04-01T11:00:17;99971.66;;;10.04;100.00
72612;BME280;60655;52.182;4.474;2023-04-01T11:08:15;99980.16;;;10.18;100.00
72612;BME280;60655;52.182;4.474;2023-04-01T11:13:12;99981.34;;;10.10;99.81
72612;BME280;60655;52.182;4.474;2023-04-01T11:25:30;100002.34;;;10.00;99.87
72612;BME280;60655;52.182;4.474;2023-04-01T11:30:19;100003.38;;;9.99;100.00
72612;BME280;60655;52.182;4.474;2023-04-01T11:43:39;100022.03;;;10.16;99.38
72612;BME280;60655;52.182;4.474;2023-04-01T11:45:55;100012.91;;;10.12;100.00
72612;BME280;60655;52.182;4.474;2023-04-01T11:55:44;100032.56;;;10.34;100.00
72612;BME280;60655;52.182;4.474;2023-04-01T11:58:13;100023.97;;;10.44;100.00
72612;BME280;60655;52.182;4.474;2023-04-01T12:07:41;100048.09;;;10.42;98.59
72612;BME280;60655;52.182;4.474;2023-04-01T12:10:12;100045.91;;;10.51;99.62
72612;BME280;60655;52.182;4.474;2023-04-01T12:12:36;100044.50;;;10.60;97.91
72612;BME280;60655;52.182;4.474;2023-04-01T12:19:43;100070.03;;;10.49;98.72
72612;BME280;60655;52.182;4.474;2023-04-01T12:31:20;100079.03;;;10.13;98.94
72612;BME280;60655;52.182;4.474;2023-04-01T12:33:42;100088.41;;;10.28;99.92
72612;BME280;60655;52.182;4.474;2023-04-01T12:41:12;100091.72;;;10.58;98.69
72612;BME280;60655;52.182;4.474;2023-04-01T12:45:35;100095.53;;;10.51;98.24
72612;BME280;60655;52.182;4.474;2023-04-01T12:52:12;100105.34;;;10.62;97.14
72612;BME280;60655;52.182;4.474;2023-04-01T13:06:26;100119.78;;;10.66;96.22
72612;BME280;60655;52.182;4.474;2023-04-01T13:10:49;100132.56;;;10.69;95.66
72612;BME280;60655;52.182;4.474;2023-04-01T13:15:26;100123.09;;;10.73;95.29
72612;BME280;60655;52.182;4.474;2023-04-01T13:17:41;100137.06;;;10.68;95.67
72612;BME280;60655;52.182;4.474;2023-04-01T13:20:13;100130.97;;;10.68;95.69
72612;BME280;60655;52.182;4.474;2023-04-01T13:27:09;100151.94;;;10.93;94.27
72612;BME280;60655;52.182;4.474;2023-04-01T13:29:21;100134.53;;;10.73;94.91
72612;BME280;60655;52.182;4.474;2023-04-01T13:31:55;100155.91;;;10.78;94.40
72612;BME280;60655;52.182;4.474;2023-04-01T13:34:16;100147.22;;;10.71;94.75
72612;BME280;60655;52.182;4.474;2023-04-01T13:43:37;100162.13;;;10.84;94.54
72612;BME280;60655;52.182;4.474;2023-04-01T13:53:02;100161.72;;;11.04;93.47
72612;BME280;60655;52.182;4.474;2023-04-01T13:57:52;100173.06;;;10.99;93.67
72612;BME280;60655;52.182;4.474;2023-04-01T14:02:44;100177.75;;;11.21;91.62
72612;BME280;60655;52.182;4.474;2023-04-01T14:04:59;100185.41;;;11.05;92.73
72612;BME280;60655;52.182;4.474;2023-04-01T14:16:20;100204.69;;;11.24;91.91
72612;BME280;60655;52.182;4.474;2023-04-01T14:18:33;100198.28;;;10.85;92.40
72612;BME280;60655;52.182;4.474;2023-04-01T14:27:55;100218.38;;;10.69;95.61
72612;BME280;60655;52.182;4.474;2023-04-01T14:33:16;100221.63;;;10.71;95.88
72612;BME280;60655;52.182;4.474;2023-04-01T14:35:59;100229.00;;;10.69;95.78
72612;BME280;60655;52.182;4.474;2023-04-01T14:40:39;100224.41;;;10.76;96.50
72612;BME280;60655;52.182;4.474;2023-04-01T14:47:49;100232.63;;;10.63;97.46
72612;BME280;60655;52.182;4.474;2023-04-01T14:49:53;100245.22;;;10.68;97.15
72612;BME280;60655;52.182;4.474;2023-04-01T14:52:32;100252.59;;;10.66;96.67
72612;BME280;60655;52.182;4.474;2023-04-01T14:54:39;100251.19;;;10.87;97.20
72612;BME280;60655;52.182;4.474;2023-04-01T14:56:50;100250.63;;;10.85;96.42
72612;BME280;60655;52.182;4.474;2023-04-01T14:58:57;100257.66;;;10.91;96.93
72612;BME280;60655;52.182;4.474;2023-04-01T15:01:13;100260.09;;;10.92;96.99
72612;BME280;60655;52.182;4.474;2023-04-01T15:03:36;100257.06;;;11.00;96.13
72612;BME280;60655;52.182;4.474;2023-04-01T15:11:28;100275.47;;;10.90;97.14
72612;BME280;60655;52.182;4.474;2023-04-01T15:13:57;100279.28;;;10.94;96.96
72612;BME280;60655;52.182;4.474;2023-04-01T15:18:32;100289.53;;;10.79;96.60
72612;BME280;60655;52.182;4.474;2023-04-01T15:21:07;100296.38;;;10.87;96.69
72612;BME280;60655;52.182;4.474;2023-04-01T15:25:51;100307.34;;;10.67;96.82
72612;BME280;60655;52.182;4.474;2023-04-01T15:34:57;100324.19;;;10.72;96.29
72612;BME280;60655;52.182;4.474;2023-04-01T15:43:48;100347.41;;;10.77;96.38
72612;BME280;60655;52.182;4.474;2023-04-01T15:51:11;100357.72;;;10.85;96.91
72612;BME280;60655;52.182;4.474;2023-04-01T15:53:37;100353.53;;;10.77;96.55
72612;BME280;60655;52.182;4.474;2023-04-01T16:01:14;100370.78;;;10.87;96.31
72612;BME280;60655;52.182;4.474;2023-04-01T16:03:40;100373.91;;;10.95;95.57
72612;BME280;60655;52.182;4.474;2023-04-01T16:10:44;100391.56;;;11.01;95.39
72612;BME280;60655;52.182;4.474;2023-04-01T16:20:17;100413.69;;;10.72;95.32
72612;BME280;60655;52.182;4.474;2023-04-01T16:22:32;100413.66;;;10.90;94.04
72612;BME280;60655;52.182;4.474;2023-04-01T16:24:38;100415.94;;;10.87;93.72
72612;BME280;60655;52.182;4.474;2023-04-01T16:27:04;100429.69;;;10.83;94.14
72612;BME280;60655;52.182;4.474;2023-04-01T16:31:36;100430.72;;;10.82;93.73
72612;BME280;60655;52.182;4.474;2023-04-01T16:33:51;100431.03;;;10.74;93.33
72612;BME280;60655;52.182;4.474;2023-04-01T16:35:59;100431.72;;;10.70;94.06
72612;BME280;60655;52.182;4.474;2023-04-01T16:40:37;100445.13;;;10.63;94.81
72612;BME280;60655;52.182;4.474;2023-04-01T16:42:51;100452.75;;;10.71;94.51
72612;BME280;60655;52.182;4.474;2023-04-01T16:44:59;100455.84;;;10.68;93.19
72612;BME280;60655;52.182;4.474;2023-04-01T16:47:10;100458.50;;;10.68;93.88
72612;BME280;60655;52.182;4.474;2023-04-01T16:49:22;100464.41;;;10.70;93.12
72612;BME280;60655;52.182;4.474;2023-04-01T16:51:32;100473.25;;;10.53;93.21
72612;BME280;60655;52.182;4.474;2023-04-01T16:55:50;100487.78;;;10.50;92.65
72612;BME280;60655;52.182;4.474;2023-04-01T16:57:57;100488.06;;;10.60;93.46
72612;BME280;60655;52.182;4.474;2023-04-01T17:02:31;100496.63;;;10.62;93.07
72612;BME280;60655;52.182;4.474;2023-04-01T17:04:41;100505.78;;;10.48;92.52
72612;BME280;60655;52.182;4.474;2023-04-01T17:07:01;100508.06;;;10.44;93.07
72612;BME280;60655;52.182;4.474;2023-04-01T17:09:20;100512.88;;;10.36;92.29
72612;BME280;60655;52.182;4.474;2023-04-01T17:14:32;100529.03;;;10.34;92.81
72612;BME280;60655;52.182;4.474;2023-04-01T17:16:47;100534.94;;;10.36;93.51
72612;BME280;60655;52.182;4.474;2023-04-01T17:19:04;100541.78;;;10.44;93.72
72612;BME280;60655;52.182;4.474;2023-04-01T17:21:45;100534.94;;;10.36;92.72
72612;BME280;60655;52.182;4.474;2023-04-01T17:28:34;100552.13;;;10.34;93.26
72612;BME280;60655;52.182;4.474;2023-04-01T17:37:13;100583.28;;;10.20;92.16
72612;BME280;60655;52.182;4.474;2023-04-01T17:39:34;100592.97;;;10.33;91.79
72612;BME280;60655;52.182;4.474;2023-04-01T17:53:49;100622.28;;;9.95;93.04
72612;BME280;60655;52.182;4.474;2023-04-01T17:56:13;100622.28;;;10.20;92.92
72612;BME280;60655;52.182;4.474;2023-04-01T17:58:20;100633.44;;;10.03;91.44
72612;BME280;60655;52.182;4.474;2023-04-01T18:00:50;100624.97;;;9.88;91.64
72612;BME280;60655;52.182;4.474;2023-04-01T18:03:33;100651.44;;;10.01;91.71
72612;BME280;60655;52.182;4.474;2023-04-01T18:10:14;100660.22;;;10.27;91.93
72612;BME280;60655;52.182;4.474;2023-04-01T18:17:18;100677.72;;;10.09;89.99
72612;BME280;60655;52.182;4.474;2023-04-01T18:19:47;100683.16;;;9.90;90.49
72612;BME280;60655;52.182;4.474;2023-04-01T18:22:08;100688.19;;;9.98;90.14
72612;BME280;60655;52.182;4.474;2023-04-01T18:26:23;100701.34;;;10.11;90.36
72612;BME280;60655;52.182;4.474;2023-04-01T18:30:32;100715.88;;;10.08;90.68
72612;BME280;60655;52.182;4.474;2023-04-01T18:32:41;100693.78;;;9.83;90.64
72612;BME280;60655;52.182;4.474;2023-04-01T18:37:30;100725.38;;;9.91;89.88